Spokane International Airport
KGEG : now visible

Airfield :











YOU CAN JOIN US ON...

 
LOGIN :

Register | Disclaimer

   EN    FR    IT 

 









Legend :    VFR   Marginal VFR   IFR   Intensive IFR   Very Intensive IFR
Visi :
Ceiling :
>= 8 km
>= 3000ft
5 to 8 km
1000 to 3000 ft
1500m to 5 km
500 to 1000 ft
800 to 1500m
200 to 500 ft
< 800m
< 200 ft
Symbols :   Thunderstorms  Fog  Heavy snow  Heavy precipitations  Wind > 20 kt






- Airport Elevation : 2376 ft
- IATA code : GEG


KGEG - Spokane International

CURRENT METAR :
  • 070353Z 00000KT 1/2SM R21/P6000FT BR OVC002 M05/M07 A3004 RMK AO2 SFC VIS 1 SLP204 I1000 T10501067

EXPIRED METARs :
  • 070253Z 00000KT 1/2SM R21/P6000FT BR OVC002 M05/M07 A3003 RMK AO2 SFC VIS 1 SLP201 I1000 I3000 T10501067 51012
  • 070234Z 00000KT 1/2SM R21/P6000FT BR OVC003 M06/M07 A3004 RMK AO2 SFC VIS 1 T10561067
  • 070153Z 00000KT 1SM R21/P6000FT BR OVC003 M05/M07 A3003 RMK AO2 SFC VIS 2 SLP201 T10501067

TAF KGEG
Valid from the 07 at 00:00 until the 08 at 00:00 UTC


062329Z 0700/0724 26006KT 2SM BR OVC003
FM070800 VRB04KT 1/2SM -FZDZSN FZFG OVC003
FM071800 VRB03KT 2SM BR OVC003
KZSE FIR / North America



MET'MAP, your aeronautical weather chart ! - Copyright ORBIFLY December 2007 - Disclaimer

ORBIFLY MET'MAP TEAM :

Programming & Development : Alexandra Zaïnal
Original concept : Baudouin d'Aumeries
Technical & hardware support : Manuel Goepfert
Assistance : Marc-Olivier Méhu




SOURCES & CREDITS :

   NOAA       Earth
Advisory